Terminal Aerodrome Forecast
Issued by NWS Mt. Holly, NJ

Home | Current Version | Previous Version | Text Only | Print | Product List | Glossary On
Versions: 1 2 3 4 5 6 7 8 9 10 11 12 13 14 15 16 17 18 19 20 21
000
FTUS41 KPHI 262321
TAFABE
TAF
KABE 262321Z 2700/2724 15004KT P6SM SCT040
     FM270500 VRB03KT P6SM BKN015
      TEMPO 2708/2712 4SM BR
     FM271700 22006KT P6SM BKN025
     FM271900 22006KT P6SM SCT040=

USA.gov is the U.S. government's official web portal to all federal, state and local government web resources and services.